Time;durP1;ratioP1;P1;durP2;ratioP2;P2;SDS_P1;SDS_P2;PMS_P1;PMS_P2;Temp;Humidity;BMP_temperature;BMP_pressure;BME280_temperature;BME280_humidity;BME280_pressure;Samples;Min_cycle;Max_cycle;Signal;HPM_P1;HPM_P2
2021/11/12 00:04:03;;;;;;;47.05;30.48;;;;;;;8.81;91.41;102198.06;5031824;28;20360;-52
2021/11/12 00:12:21;;;;;;;45.25;29.10;;;;;;;8.79;92.12;102197.44;5031588;28;20519;-52
2021/11/12 00:14:51;;;;;;;45.38;27.60;;;;;;;8.79;91.62;102188.47;5032273;28;20045;-50
2021/11/12 00:17:28;;;;;;;44.33;28.00;;;;;;;8.80;91.82;102180.06;5031241;28;20753;-53
2021/11/12 00:19:57;;;;;;;44.35;27.42;;;;;;;8.79;91.55;102186.59;5030867;28;20391;-52
2021/11/12 00:22:26;;;;;;;42.00;27.15;;;;;;;8.76;91.90;102184.31;5031297;28;20042;-53
2021/11/12 00:24:56;;;;;;;41.85;26.67;;;;;;;8.77;91.89;102185.97;5032098;28;20534;-53
2021/11/12 00:27:25;;;;;;;38.88;26.23;;;;;;;8.75;91.77;102182.63;5034938;28;20485;-53
2021/11/12 00:35:05;;;;;;;41.50;26.15;;;;;;;8.65;91.88;102168.72;5035481;28;20046;-50
2021/11/12 00:40:33;;;;;;;41.47;25.27;;;;;;;8.66;91.72;102164.94;5035546;28;20128;-53
2021/11/12 00:45:40;;;;;;;42.88;25.67;;;;;;;8.69;91.77;102157.19;5035435;28;20497;-50
2021/11/12 00:48:15;;;;;;;37.50;24.77;;;;;;;8.70;91.58;102160.72;5035093;28;20064;-53
2021/11/12 00:55:43;;;;;;;37.92;24.17;;;;;;;8.73;91.47;102149.41;5035233;28;20047;-53
2021/11/12 00:58:14;;;;;;;36.25;23.98;;;;;;;8.73;91.10;102150.28;5035342;28;20037;-53
2021/11/12 01:00:43;;;;;;;35.88;23.85;;;;;;;8.73;91.19;102146.69;5034351;28;20067;-52
2021/11/12 01:03:12;;;;;;;45.13;24.95;;;;;;;8.72;90.96;102136.91;5033219;28;20497;-52
2021/11/12 01:05:40;;;;;;;37.50;23.13;;;;;;;8.66;89.85;102133.19;5035426;28;20060;-51
2021/11/12 01:08:08;;;;;;;36.00;24.27;;;;;;;8.60;90.60;102133.25;5034137;28;20041;-52
2021/11/12 01:10:37;;;;;;;38.22;24.65;;;;;;;8.58;90.58;102125.31;5034671;28;20061;-52
2021/11/12 01:13:05;;;;;;;35.50;23.50;;;;;;;8.58;90.72;102124.47;5036114;28;20041;-49
2021/11/12 01:15:35;;;;;;;42.65;23.65;;;;;;;8.56;90.82;102115.72;5034956;28;20050;-52
2021/11/12 01:18:03;;;;;;;36.22;23.20;;;;;;;8.55;90.90;102119.50;5034927;28;20091;-52
2021/11/12 01:20:31;;;;;;;36.50;22.92;;;;;;;8.52;90.28;102127.03;5034742;28;20064;-52
2021/11/12 01:23:00;;;;;;;36.83;23.30;;;;;;;8.53;90.52;102130.59;5033508;28;20096;-53
2021/11/12 01:25:28;;;;;;;41.42;23.38;;;;;;;8.53;91.09;102123.25;5034614;28;20041;-52
2021/11/12 01:27:56;;;;;;;35.90;22.92;;;;;;;8.53;90.37;102123.25;5034924;28;20038;-51
2021/11/12 01:30:25;;;;;;;37.50;23.25;;;;;;;8.52;90.33;102121.59;5034410;28;20503;-53
2021/11/12 01:32:53;;;;;;;39.35;24.80;;;;;;;8.52;90.43;102121.59;5034270;28;20060;-52
2021/11/12 01:35:22;;;;;;;36.53;23.30;;;;;;;8.51;90.17;102117.25;5034338;28;20049;-53
2021/11/12 01:37:51;;;;;;;40.53;23.17;;;;;;;8.51;89.68;102119.97;5033677;28;20042;-49
2021/11/12 01:40:24;;;;;;;35.90;22.95;;;;;;;8.49;89.94;102113.91;5034572;28;20095;-51
2021/11/12 01:43:16;;;;;;;41.25;23.48;;;;;;;8.49;89.92;102105.75;5033808;28;20053;-52
2021/11/12 01:46:26;;;;;;;38.10;23.08;;;;;;;8.49;89.86;102115.78;5033944;28;20038;-53
2021/11/12 01:51:35;;;;;;;34.50;22.02;;;;;;;8.49;89.57;102105.75;5034333;28;20049;-52
2021/11/12 02:01:44;;;;;;;34.15;22.20;;;;;;;8.39;88.98;102099.94;5033859;28;20064;-52
2021/11/12 02:04:18;;;;;;;39.05;21.45;;;;;;;8.37;89.09;102084.94;5033463;28;20069;-52
2021/11/12 02:06:46;;;;;;;34.22;22.33;;;;;;;8.34;89.83;102080.78;5033743;28;20088;-52
2021/11/12 02:09:19;;;;;;;41.13;23.30;;;;;;;8.34;88.96;102083.50;5033861;28;20116;-49
2021/11/12 02:12:16;;;;;;;32.70;22.27;;;;;;;8.32;89.77;102072.88;5033656;28;20045;-50
2021/11/12 02:14:46;;;;;;;36.70;23.92;;;;;;;8.34;89.07;102067.19;5033617;28;20045;-52
2021/11/12 02:17:18;;;;;;;37.70;23.40;;;;;;;8.30;88.55;102069.53;5033640;28;20088;-50
2021/11/12 02:19:50;;;;;;;36.38;22.42;;;;;;;8.25;88.62;102055.81;5032732;28;20052;-53
2021/11/12 02:22:20;;;;;;;36.85;23.33;;;;;;;8.26;88.27;102059.34;5033476;28;20103;-54
2021/11/12 02:24:55;;;;;;;36.53;22.30;;;;;;;8.23;88.41;102055.19;5033477;28;20065;-52
2021/11/12 02:27:28;;;;;;;34.55;23.05;;;;;;;8.20;88.50;102046.63;5033181;28;20061;-51
2021/11/12 02:29:57;;;;;;;35.67;23.15;;;;;;;8.12;87.98;102042.31;5033446;28;20045;-52
2021/11/12 02:32:27;;;;;;;33.78;21.90;;;;;;;8.08;87.60;102052.81;5033540;28;20041;-52
2021/11/12 02:35:02;;;;;;;34.70;22.92;;;;;;;8.08;88.24;102054.66;5033407;28;20120;-49
2021/11/12 02:37:34;;;;;;;37.45;23.95;;;;;;;8.08;88.41;102052.81;5033403;28;20129;-52
2021/11/12 02:40:03;;;;;;;33.90;22.55;;;;;;;8.04;87.35;102059.72;5033455;28;20056;-52
2021/11/12 02:42:31;;;;;;;33.55;21.55;;;;;;;8.00;88.34;102058.50;5033128;28;20049;-52
2021/11/12 02:44:59;;;;;;;36.58;22.30;;;;;;;7.99;87.80;102061.44;5032819;28;20049;-53
2021/11/12 02:47:27;;;;;;;39.33;23.25;;;;;;;8.00;88.03;102063.91;5032650;28;20105;-53
2021/11/12 02:49:57;;;;;;;38.13;22.58;;;;;;;7.98;87.99;102066.00;5033517;28;20417;-54
2021/11/12 02:52:25;;;;;;;33.78;22.40;;;;;;;7.96;88.24;102062.72;5033322;28;20404;-53
2021/11/12 02:54:54;;;;;;;34.97;22.38;;;;;;;7.99;88.30;102054.13;5032756;28;20049;-53
2021/11/12 02:57:29;;;;;;;34.03;22.38;;;;;;;8.02;87.78;102056.41;5032645;28;20045;-52
2021/11/12 02:59:59;;;;;;;32.47;21.67;;;;;;;8.00;88.07;102050.34;5032840;28;20104;-53
2021/11/12 03:02:27;;;;;;;35.83;22.13;;;;;;;7.99;87.71;102051.41;5032944;28;20455;-53
2021/11/12 03:04:55;;;;;;;34.72;22.73;;;;;;;8.00;87.38;102052.25;5033022;28;20044;-49
2021/11/12 03:07:24;;;;;;;40.25;23.80;;;;;;;7.97;87.61;102045.38;5033042;28;20037;-52
2021/11/12 03:09:52;;;;;;;35.25;22.65;;;;;;;7.96;87.66;102040.16;5032537;28;20041;-50
2021/11/12 03:12:21;;;;;;;33.30;21.73;;;;;;;7.94;87.46;102040.38;5032142;28;20124;-52
2021/11/12 03:14:50;;;;;;;41.13;23.70;;;;;;;7.90;86.45;102033.72;5032627;28;20049;-51
2021/11/12 03:17:19;;;;;;;36.38;22.85;;;;;;;7.86;86.77;102033.34;5032249;28;20037;-52
2021/11/12 03:19:48;;;;;;;33.53;22.27;;;;;;;7.82;86.16;102037.56;5032864;28;20042;-54
2021/11/12 03:22:19;;;;;;;38.45;23.63;;;;;;;7.83;86.12;102031.06;5032312;28;20056;-53
2021/11/12 03:24:51;;;;;;;31.77;22.23;;;;;;;7.85;85.88;102025.44;5022034;28;20044;-53
2021/11/12 03:49:51;;;;;;;36.38;24.42;;;;;;;7.55;85.31;102017.06;5030231;28;20058;-53
2021/11/12 03:50:12;;;;;;;36.08;23.15;;;;;;;7.53;85.45;102009.16;5016957;28;20052;-53
2021/11/12 05:34:23;;;;;;;34.38;21.83;;;;;;;6.92;78.39;101803.78;4993294;28;20054;-52
2021/11/12 05:50:23;;;;;;;34.38;22.67;;;;;;;6.67;78.76;101830.81;5010166;28;20522;-51
2021/11/12 05:55:37;;;;;;;32.72;21.58;;;;;;;6.57;78.63;101831.28;5034348;28;20566;-53
2021/11/12 05:58:05;;;;;;;32.65;21.23;;;;;;;6.57;78.52;101831.28;5034134;28;20407;-49
2021/11/12 06:00:33;;;;;;;32.63;22.25;;;;;;;6.58;78.53;101830.22;5034034;28;20485;-52
2021/11/12 06:03:01;;;;;;;32.63;21.95;;;;;;;6.49;78.77;101834.22;5033616;28;20049;-53
2021/11/12 06:05:29;;;;;;;37.33;23.83;;;;;;;6.41;78.69;101838.03;5033934;28;20045;-52
2021/11/12 06:07:57;;;;;;;35.67;22.98;;;;;;;6.42;78.74;101841.56;5033886;28;20041;-53
2021/11/12 06:10:25;;;;;;;34.60;23.95;;;;;;;6.44;78.46;101844.88;5033836;28;20042;-52
2021/11/12 06:12:52;;;;;;;32.75;23.25;;;;;;;6.40;78.67;101841.78;5033608;28;20041;-53
2021/11/12 06:15:21;;;;;;;33.38;23.67;;;;;;;6.34;79.01;101824.50;5033526;28;20033;-54
2021/11/12 06:17:49;;;;;;;35.13;22.23;;;;;;;6.34;78.86;101819.09;5034165;28;20096;-53
2021/11/12 06:20:17;;;;;;;38.40;23.20;;;;;;;6.37;78.99;101807.84;5033206;28;20038;-53
2021/11/12 06:22:45;;;;;;;34.70;23.33;;;;;;;6.38;79.03;101804.09;5033402;28;20129;-52
2021/11/12 06:25:13;;;;;;;40.60;24.50;;;;;;;6.38;78.45;101817.63;5033087;28;20047;-53
2021/11/12 06:27:41;;;;;;;40.10;24.27;;;;;;;6.36;77.92;101813.47;5034123;28;20053;-53
2021/11/12 06:30:09;;;;;;;36.13;24.30;;;;;;;6.24;78.28;101826.03;5033698;28;20051;-52
2021/11/12 06:32:37;;;;;;;37.42;24.30;;;;;;;6.13;78.68;101833.78;5033499;28;20040;-52
2021/11/12 06:35:06;;;;;;;38.13;25.10;;;;;;;6.09;78.74;101834.41;5033638;28;20053;-52
2021/11/12 06:37:34;;;;;;;37.45;24.83;;;;;;;6.06;78.78;101834.81;5033508;28;20068;-53
2021/11/12 06:40:04;;;;;;;36.50;24.60;;;;;;;6.00;79.13;101841.09;5033303;28;20084;-53
2021/11/12 06:42:39;;;;;;;33.75;23.33;;;;;;;6.03;79.34;101848.78;5029977;28;20125;-53
2021/11/12 06:50:39;;;;;;;35.70;23.85;;;;;;;6.18;78.55;101860.16;5031858;28;20058;-50
2021/11/12 06:53:07;;;;;;;36.22;23.08;;;;;;;6.21;78.00;101861.63;5031733;28;20037;-52
2021/11/12 06:55:35;;;;;;;33.15;21.63;;;;;;;6.23;78.55;101865.78;5033434;28;20115;-54
2021/11/12 06:58:03;;;;;;;33.40;21.23;;;;;;;6.23;78.58;101857.69;4336260;28;10000669;-56
2021/11/12 07:00:31;;;;;;;34.25;22.25;;;;;;;6.24;78.03;101853.91;5031035;28;20045;-54
2021/11/12 07:02:59;;;;;;;28.80;18.75;;;;;;;6.26;78.22;101848.28;5030483;28;20048;-53
2021/11/12 07:05:27;;;;;;;33.50;21.88;;;;;;;6.24;78.21;101853.91;5030513;28;20049;-54
2021/11/12 07:07:55;;;;;;;31.55;18.67;;;;;;;6.27;78.08;101853.47;5030443;28;20076;-52
2021/11/12 07:10:23;;;;;;;28.55;17.90;;;;;;;6.29;78.39;101850.56;5029982;28;20073;-52
2021/11/12 07:12:51;;;;;;;33.05;21.05;;;;;;;6.27;77.55;101839.94;5031099;28;20072;-54
2021/11/12 07:15:20;;;;;;;34.42;22.38;;;;;;;6.26;77.21;101821.22;5030596;28;20049;-54
2021/11/12 07:17:48;;;;;;;34.90;21.92;;;;;;;6.14;77.89;101821.06;5030188;28;20518;-51
2021/11/12 07:20:16;;;;;;;35.53;22.50;;;;;;;6.08;78.02;101827.31;5029891;28;20033;-52
2021/11/12 07:22:44;;;;;;;31.75;20.80;;;;;;;6.07;78.62;101825.66;5030066;28;20042;-52
2021/11/12 07:25:12;;;;;;;31.00;21.83;;;;;;;6.10;78.45;101830.66;5030768;28;20117;-54
2021/11/12 07:27:40;;;;;;;31.83;21.67;;;;;;;6.10;77.94;101825.22;5030345;28;20067;-56
2021/11/12 07:30:18;;;;;;;30.63;20.85;;;;;;;6.12;78.41;101829.38;5030121;28;20573;-57
2021/11/12 07:32:48;;;;;;;32.33;21.45;;;;;;;6.09;78.00;101837.13;5016643;28;20064;-55
2021/11/12 07:35:21;;;;;;;33.00;21.20;;;;;;;6.07;77.76;101828.38;5029067;28;20495;-53
2021/11/12 07:37:57;;;;;;;34.60;22.13;;;;;;;6.04;78.01;101826.94;5029926;28;20100;-57
2021/11/12 07:40:36;;;;;;;38.53;23.63;;;;;;;6.04;77.79;101815.25;5030395;28;20049;-55
2021/11/12 07:45:53;;;;;;;52.45;33.28;;;;;;;5.95;77.98;101798.44;5029814;28;20095;-56
2021/11/12 07:48:23;;;;;;;58.90;35.53;;;;;;;5.96;78.10;101791.97;5029649;28;20045;-52
2021/11/12 07:50:51;;;;;;;57.65;34.85;;;;;;;5.94;78.06;101794.91;5031755;28;20049;-53
2021/11/12 07:53:18;;;;;;;50.38;34.25;;;;;;;5.95;77.70;101795.75;5031967;28;20557;-57
2021/11/12 07:55:48;;;;;;;69.38;44.22;;;;;;;5.96;77.73;101786.56;5032011;28;20049;-55
2021/11/12 07:58:16;;;;;;;98.72;59.63;;;;;;;5.91;77.31;101781.75;5032105;28;20121;-51
2021/11/12 08:00:44;;;;;;;82.32;50.85;;;;;;;5.89;78.63;101783.88;5030452;28;20041;-55
2021/11/12 08:03:14;;;;;;;65.15;41.80;;;;;;;5.81;77.94;101781.38;5031821;28;20100;-51
2021/11/12 08:05:51;;;;;;;40.22;28.42;;;;;;;5.72;77.86;101788.06;5032122;28;20056;-52
2021/11/12 08:08:22;;;;;;;36.72;25.77;;;;;;;5.71;78.41;101781.00;5031627;28;20045;-55
2021/11/12 08:10:56;;;;;;;41.10;25.70;;;;;;;5.74;78.52;101780.56;5031869;28;20144;-53
2021/11/12 08:13:46;;;;;;;40.85;25.23;;;;;;;5.75;78.00;101784.97;5032132;28;20056;-53
2021/11/12 08:19:52;;;;;;;40.80;26.17;;;;;;;5.64;78.08;101778.31;5009538;28;20125;-53
2021/11/12 08:24:55;;;;;;;51.55;29.40;;;;;;;5.59;79.38;101780.81;5009929;28;20042;-56
2021/11/12 08:30:05;;;;;;;43.25;27.80;;;;;;;5.52;78.36;101759.22;5009437;28;20077;-54
2021/11/12 08:32:48;;;;;;;47.25;28.95;;;;;;;5.46;79.37;101770.03;5006543;28;20093;-53
2021/11/12 08:41:13;;;;;;;50.47;32.72;;;;;;;5.79;79.18;101772.66;4952485;28;20043;-52
2021/11/12 08:43:57;;;;;;;47.75;31.33;;;;;;;5.79;78.59;101759.13;4950019;28;20123;-54
2021/11/12 08:46:29;;;;;;;45.40;30.40;;;;;;;5.79;78.73;101755.59;4955236;28;20053;-49
2021/11/12 08:49:03;;;;;;;51.22;33.13;;;;;;;5.80;78.92;101751.84;4955640;28;20051;-52
2021/11/12 08:51:35;;;;;;;55.40;33.00;;;;;;;5.82;78.57;101747.91;4989604;28;20621;-49
2021/11/12 08:54:06;;;;;;;53.60;31.88;;;;;;;5.86;78.94;101743.72;4992819;28;20410;-51
2021/11/12 08:56:36;;;;;;;52.85;31.88;;;;;;;5.85;78.96;101739.34;4987045;28;20050;-57
2021/11/12 08:59:04;;;;;;;49.75;31.27;;;;;;;5.86;79.49;101746.41;4992157;28;20042;-53
2021/11/12 09:01:34;;;;;;;53.75;28.88;;;;;;;5.85;78.81;101747.47;4992638;28;20046;-52
2021/11/12 09:04:03;;;;;;;39.72;26.27;;;;;;;5.83;79.17;101749.56;4993176;28;20156;-50
2021/11/12 09:06:31;;;;;;;38.20;25.17;;;;;;;5.84;79.13;101729.56;4992642;28;20042;-56
2021/11/12 09:08:59;;;;;;;41.33;25.38;;;;;;;5.87;79.27;101734.56;4992728;28;20046;-54
2021/11/12 09:11:27;;;;;;;42.00;27.38;;;;;;;5.87;79.28;101741.84;4991763;28;20050;-54
2021/11/12 09:14:01;;;;;;;42.00;27.50;;;;;;;5.84;79.71;101724.16;4994386;28;20038;-53
2021/11/12 09:16:31;;;;;;;39.78;24.65;;;;;;;5.80;79.90;101717.53;5033677;28;20064;-51
2021/11/12 09:19:04;;;;;;;41.03;26.17;;;;;;;5.73;80.29;101722.97;5034346;28;20113;-53
2021/11/12 09:21:33;;;;;;;34.78;21.70;;;;;;;5.76;81.04;101721.72;5034264;28;20126;-50
2021/11/12 09:24:01;;;;;;;41.35;26.55;;;;;;;5.90;81.14;101700.84;5034316;28;20045;-53
2021/11/12 09:26:29;;;;;;;41.28;26.02;;;;;;;5.97;80.62;101696.28;5032487;28;20100;-53
2021/11/12 09:28:57;;;;;;;42.10;25.70;;;;;;;6.01;80.14;101700.19;5034688;28;20381;-49
2021/11/12 09:31:25;;;;;;;37.83;24.50;;;;;;;6.03;79.94;101686.47;5034630;28;20132;-52
2021/11/12 09:33:53;;;;;;;33.72;21.50;;;;;;;6.01;80.15;101675.03;5034712;28;20045;-53
2021/11/12 09:36:21;;;;;;;26.98;18.60;;;;;;;5.97;80.04;101680.88;5033716;28;20042;-52
2021/11/12 09:38:49;;;;;;;26.42;17.98;;;;;;;5.95;80.21;101687.53;5034822;28;20049;-53
2021/11/12 09:41:17;;;;;;;26.33;18.92;;;;;;;5.92;80.51;101688.78;5026056;28;20030;-53
2021/11/12 09:43:48;;;;;;;35.00;19.30;;;;;;;5.91;80.66;101687.09;5032636;28;20037;-53
2021/11/12 09:46:16;;;;;;;27.27;18.35;;;;;;;5.90;81.56;101679.22;5033913;28;20034;-53
2021/11/12 09:48:45;;;;;;;23.95;18.25;;;;;;;5.92;81.62;101688.78;5034189;28;20096;-49
2021/11/12 09:51:13;;;;;;;29.05;18.77;;;;;;;5.94;82.94;101673.19;5033828;28;20040;-53
2021/11/12 09:53:42;;;;;;;28.55;19.17;;;;;;;5.94;82.14;101678.59;5033714;28;20060;-52
2021/11/12 09:56:11;;;;;;;29.13;20.20;;;;;;;5.98;82.01;101682.50;5032434;28;20047;-52
2021/11/12 09:58:43;;;;;;;29.67;18.92;;;;;;;6.07;82.22;101677.69;5033214;28;20037;-54
2021/11/12 10:01:11;;;;;;;29.40;20.23;;;;;;;6.16;82.39;101684.50;5032637;28;20041;-53
2021/11/12 10:03:46;;;;;;;26.45;18.98;;;;;;;6.20;82.22;101690.31;5034335;28;20141;-52
2021/11/12 10:06:27;;;;;;;34.20;18.42;;;;;;;6.28;82.32;101698.19;5032915;28;20440;-50
2021/11/12 10:08:56;;;;;;;28.77;19.08;;;;;;;6.32;82.08;101676.91;5026771;28;20099;-54
2021/11/12 10:11:34;;;;;;;27.70;17.52;;;;;;;6.35;81.73;101684.59;5033626;28;20052;-52
2021/11/12 10:14:38;;;;;;;29.08;18.90;;;;;;;6.31;81.91;101659.84;5030983;28;20053;-53
2021/11/12 10:17:09;;;;;;;29.45;19.30;;;;;;;6.30;82.11;101655.50;5033104;28;20370;-52
2021/11/12 10:19:49;;;;;;;25.05;17.85;;;;;;;6.29;82.04;101664.66;5033634;28;20144;-52
2021/11/12 10:22:21;;;;;;;25.50;16.95;;;;;;;6.30;81.82;101655.50;5033480;28;20373;-55
2021/11/12 10:24:55;;;;;;;28.73;19.20;;;;;;;6.32;82.32;101653.38;5033839;28;20042;-53
2021/11/12 10:27:27;;;;;;;24.45;16.15;;;;;;;6.40;82.34;101655.84;5031300;28;20049;-52
2021/11/12 10:29:59;;;;;;;25.55;19.20;;;;;;;6.50;82.77;101654.53;5033138;28;20053;-52
2021/11/12 10:32:31;;;;;;;30.38;18.00;;;;;;;6.59;82.71;101655.88;5033550;28;20521;-52
2021/11/12 10:35:08;;;;;;;26.15;16.45;;;;;;;6.60;82.56;101631.28;5032157;28;20111;-54
2021/11/12 10:37:39;;;;;;;27.48;19.63;;;;;;;6.62;81.26;101617.56;5032051;28;20099;-54
2021/11/12 10:40:13;;;;;;;29.58;19.80;;;;;;;6.64;81.19;101620.88;5029422;28;20052;-49
2021/11/12 10:42:44;;;;;;;27.42;19.13;;;;;;;6.67;81.09;101604.16;5032735;28;20069;-53
2021/11/12 10:45:21;;;;;;;25.88;19.13;;;;;;;6.72;81.38;101607.03;5033165;28;20049;-56
2021/11/12 10:47:55;;;;;;;29.58;20.35;;;;;;;6.74;81.30;101598.69;5030851;28;20038;-54
2021/11/12 10:50:27;;;;;;;30.92;20.80;;;;;;;6.66;80.36;101597.06;5032825;28;20124;-53
2021/11/12 10:53:14;;;;;;;28.08;19.27;;;;;;;6.59;81.27;101596.31;5032752;28;20049;-52
2021/11/12 10:55:55;;;;;;;28.35;17.90;;;;;;;6.61;81.10;101611.31;5026115;28;20049;-51
2021/11/12 10:58:24;;;;;;;31.83;21.23;;;;;;;6.67;81.30;101603.34;5032759;28;20042;-51
2021/11/12 11:00:52;;;;;;;29.77;20.85;;;;;;;6.69;81.32;101601.25;5033111;28;20038;-49
2021/11/12 11:03:22;;;;;;;27.75;19.95;;;;;;;6.66;80.94;101597.06;5032930;28;20060;-52
2021/11/12 11:05:55;;;;;;;28.77;21.02;;;;;;;6.67;81.11;101587.91;5033142;28;20120;-51
2021/11/12 11:08:28;;;;;;;32.13;21.08;;;;;;;6.72;81.26;101590.78;5031653;28;20515;-50
2021/11/12 11:11:02;;;;;;;31.65;21.92;;;;;;;6.74;80.74;101591.41;5031468;28;20451;-53
2021/11/12 11:13:38;;;;;;;30.85;20.75;;;;;;;6.75;80.68;101587.63;5032452;28;20037;-50
2021/11/12 11:16:08;;;;;;;27.90;20.15;;;;;;;6.80;80.26;101587.78;5033061;28;20053;-54
2021/11/12 11:18:40;;;;;;;33.85;21.83;;;;;;;6.78;80.45;101573.66;5032320;28;20041;-54
2021/11/12 11:23:48;;;;;;;31.73;21.55;;;;;;;6.68;80.83;101573.31;5027375;28;20606;-54
2021/11/12 11:26:23;;;;;;;30.02;21.65;;;;;;;6.70;81.57;101582.03;5020934;28;20504;-52
2021/11/12 11:28:54;;;;;;;30.35;21.27;;;;;;;6.72;80.56;101585.38;5032547;28;20389;-51
2021/11/12 11:31:27;;;;;;;33.67;23.10;;;;;;;6.69;80.43;101575.00;5032540;28;20464;-53
2021/11/12 11:33:56;;;;;;;30.58;22.23;;;;;;;6.62;80.68;101560.69;5032799;28;20033;-56
2021/11/12 11:36:27;;;;;;;31.75;22.13;;;;;;;6.66;80.73;101564.59;5032739;28;20476;-53
2021/11/12 11:38:58;;;;;;;32.65;22.35;;;;;;;6.73;80.92;101556.41;5031961;28;20120;-54
2021/11/12 11:41:27;;;;;;;30.55;22.38;;;;;;;6.75;81.22;101551.59;5031500;28;20250;-53
2021/11/12 11:43:56;;;;;;;31.80;21.90;;;;;;;6.71;80.73;101550.38;5032355;28;20436;-53
2021/11/12 11:46:34;;;;;;;31.80;22.45;;;;;;;6.70;81.08;101541.44;5032497;28;20461;-53
2021/11/12 11:49:05;;;;;;;29.60;22.27;;;;;;;6.69;80.71;101528.94;5032511;28;20049;-54
2021/11/12 11:51:55;;;;;;;31.65;23.33;;;;;;;6.74;81.17;101539.13;5031014;28;20459;-53
2021/11/12 11:54:25;;;;;;;31.60;22.92;;;;;;;6.78;81.44;101530.31;5027994;28;20394;-50
2021/11/12 11:56:59;;;;;;;33.47;24.42;;;;;;;6.83;81.24;101519.63;5032233;28;20136;-53
2021/11/12 11:59:29;;;;;;;32.95;23.27;;;;;;;6.83;80.39;101511.50;5032202;28;20191;-51
2021/11/12 12:02:03;;;;;;;30.30;22.38;;;;;;;6.78;81.14;101522.19;5032264;28;20073;-52
2021/11/12 12:04:36;;;;;;;32.75;23.98;;;;;;;6.82;80.60;101515.25;5031681;28;20451;-54
2021/11/12 12:07:10;;;;;;;32.92;23.50;;;;;;;6.80;81.47;101511.94;5032113;28;20095;-53
2021/11/12 12:09:44;;;;;;;39.13;28.42;;;;;;;6.85;81.17;101502.31;5031658;28;20524;-52
2021/11/12 12:12:13;;;;;;;35.80;25.73;;;;;;;6.89;81.76;101495.41;5031451;28;20468;-52
2021/11/12 12:14:42;;;;;;;37.53;26.40;;;;;;;6.92;81.53;101489.50;5031632;28;20439;-53
2021/11/12 12:17:12;;;;;;;38.90;25.77;;;;;;;6.96;81.49;101488.00;5031934;28;20054;-52
2021/11/12 12:19:59;;;;;;;33.85;25.15;;;;;;;6.96;81.88;101491.53;5031937;28;20041;-53
2021/11/12 13:22:56;;;;;;;34.08;24.73;;;;;;;7.16;84.66;101418.09;5029404;28;20037;-53
2021/11/12 13:25:49;;;;;;;34.80;25.13;;;;;;;7.18;84.96;101399.75;5033271;28;20049;-52
2021/11/12 13:28:26;;;;;;;32.17;23.50;;;;;;;7.21;84.81;101396.56;5032779;28;20095;-52
2021/11/12 13:30:58;;;;;;;36.08;25.00;;;;;;;7.23;85.36;101397.16;5032907;28;20061;-53
2021/11/12 13:33:38;;;;;;;36.35;25.05;;;;;;;7.25;85.55;101389.63;5033039;28;20037;-54
2021/11/12 13:36:24;;;;;;;34.15;24.50;;;;;;;7.27;85.77;101386.69;5034211;28;20038;-51
2021/11/12 13:39:03;;;;;;;31.58;23.20;;;;;;;7.29;85.99;101384.59;5033519;28;20115;-53
2021/11/12 13:41:39;;;;;;;34.05;23.60;;;;;;;7.29;85.78;101375.59;5034073;28;20061;-53
2021/11/12 13:44:09;;;;;;;33.20;24.17;;;;;;;7.28;85.67;101366.66;5032159;28;20124;-50
2021/11/12 13:46:51;;;;;;;30.02;23.77;;;;;;;7.28;85.83;101355.00;5033635;28;20511;-52
2021/11/12 13:49:35;;;;;;;30.27;22.30;;;;;;;7.28;86.42;101355.81;5032042;28;20033;-52
2021/11/12 13:52:09;;;;;;;34.03;22.98;;;;;;;7.29;85.83;101348.50;5033978;28;20500;-52
2021/11/12 13:54:43;;;;;;;32.05;21.52;;;;;;;7.30;86.23;101344.75;5033557;28;20041;-52
2021/11/12 13:57:18;;;;;;;32.10;22.43;;;;;;;7.33;85.49;101341.56;5030912;28;20057;-51
2021/11/12 13:59:58;;;;;;;29.42;21.73;;;;;;;7.34;85.69;101349.47;5032025;28;20061;-52
2021/11/12 14:02:30;;;;;;;31.25;21.30;;;;;;;7.33;85.46;101345.09;5032829;28;20076;-53
2021/11/12 14:05:12;;;;;;;30.92;22.13;;;;;;;7.33;86.40;101346.97;5033855;28;20080;-52
2021/11/12 14:07:40;;;;;;;31.35;21.58;;;;;;;7.32;85.95;101346.16;5033628;28;20045;-51
2021/11/12 14:10:10;;;;;;;30.80;20.98;;;;;;;7.31;86.13;101335.53;5032991;28;20120;-51
2021/11/12 14:12:55;;;;;;;30.73;21.15;;;;;;;7.33;85.91;101333.44;5032726;28;20057;-53
2021/11/12 14:15:31;;;;;;;29.70;20.15;;;;;;;7.33;86.75;101325.28;5031934;28;20487;-53
2021/11/12 14:21:10;;;;;;;30.13;20.55;;;;;;;7.36;86.52;101309.41;5036203;28;20163;-52
2021/11/12 14:24:24;;;;;;;27.90;20.30;;;;;;;7.38;86.48;101312.69;5029430;28;20047;-52
2021/11/12 14:44:41;;;;;;;27.08;19.83;;;;;;;7.42;87.35;101280.53;5032424;28;20048;-52
2021/11/12 14:46:57;;;;;;;26.92;20.00;;;;;;;7.42;86.77;101278.63;5018379;28;20133;-52
2021/11/12 14:54:50;;;;;;;27.35;18.83;;;;;;;7.47;87.39;101283.34;5033173;28;20417;-52
2021/11/12 15:00:04;;;;;;;30.77;19.73;;;;;;;7.47;87.16;101283.34;5033159;28;20155;-53
2021/11/12 15:02:33;;;;;;;27.33;19.85;;;;;;;7.46;87.15;101277.09;5032813;28;20042;-52
2021/11/12 15:05:02;;;;;;;26.35;19.20;;;;;;;7.45;87.93;101280.03;5032635;28;20034;-53
2021/11/12 15:07:40;;;;;;;25.17;19.20;;;;;;;7.44;87.81;101273.78;5031882;28;20049;-52
2021/11/12 15:10:25;;;;;;;26.67;19.17;;;;;;;7.44;87.49;101272.97;5032251;28;20107;-54
2021/11/12 15:12:56;;;;;;;26.58;19.17;;;;;;;7.43;88.22;101265.88;5030487;28;20053;-53
2021/11/12 15:15:24;;;;;;;26.42;18.85;;;;;;;7.44;87.98;101264.84;5030291;28;20049;-52
2021/11/12 15:17:54;;;;;;;29.90;19.88;;;;;;;7.44;87.88;101256.72;5032622;28;20055;-53
2021/11/12 15:20:22;;;;;;;27.60;19.30;;;;;;;7.46;88.07;101254.59;5030455;28;20056;-53
2021/11/12 15:23:13;;;;;;;27.77;19.05;;;;;;;7.49;88.46;101248.69;5030520;28;20496;-50
2021/11/12 15:33:27;;;;;;;30.45;19.73;;;;;;;7.55;87.93;101215.22;4681444;28;10001030;-52
2021/11/12 15:35:58;;;;;;;27.02;19.88;;;;;;;7.57;88.03;101218.50;5030440;28;20041;-51
2021/11/12 15:38:33;;;;;;;27.80;19.58;;;;;;;7.55;87.75;101209.78;5030187;28;20061;-52
2021/11/12 15:44:20;;;;;;;30.65;19.27;;;;;;;7.52;87.97;101204.81;5023991;28;20095;-55
2021/11/12 15:46:52;;;;;;;29.77;19.63;;;;;;;7.49;88.15;101199.88;5025871;28;20599;-52
2021/11/12 15:49:23;;;;;;;29.55;19.02;;;;;;;7.49;89.09;101199.88;5025344;28;20092;-53
2021/11/12 16:11:11;;;;;;;27.27;18.33;;;;;;;7.48;88.44;101187.41;5004071;28;20571;-52
2021/11/12 16:13:42;;;;;;;30.42;18.38;;;;;;;7.47;88.51;101180.31;4988228;28;20055;-52
2021/11/12 16:16:41;;;;;;;32.00;18.98;;;;;;;7.46;89.46;101178.69;4997009;28;20094;-52
2021/11/12 16:19:17;;;;;;;26.67;18.95;;;;;;;7.44;88.69;101187.03;5004390;28;20588;-52
2021/11/12 16:24:49;;;;;;;27.35;18.88;;;;;;;7.48;89.23;101181.97;4968575;28;20058;-53
2021/11/12 16:27:17;;;;;;;26.45;18.40;;;;;;;7.47;89.30;101167.59;4967244;28;20058;-55
2021/11/12 16:29:48;;;;;;;27.77;18.88;;;;;;;7.47;88.71;101154.03;4966305;28;20600;-53
2021/11/12 16:32:27;;;;;;;24.88;19.08;;;;;;;7.48;88.89;101146.75;4980322;28;20046;-52
2021/11/12 16:35:00;;;;;;;27.45;19.27;;;;;;;7.49;89.42;101151.09;4987378;28;20046;-51
2021/11/12 16:37:29;;;;;;;28.00;18.35;;;;;;;7.47;nan;101142.38;4987018;28;20066;-53
2021/11/12 16:45:37;;;;;;;26.67;18.75;;;;;;;7.46;89.02;101152.38;4941733;28;20066;-53
2021/11/12 17:09:10;;;;;;;37.92;21.33;;;;;;;7.51;89.53;101154.38;4982782;28;20041;-52
2021/11/12 17:19:46;;;;;;;26.25;18.85;;;;;;;7.54;90.36;101156.59;5004283;28;20050;-52
2021/11/12 17:47:18;;;;;;;23.73;14.77;;;;;;;7.74;92.13;101149.94;5022130;28;20041;-51
2021/11/12 17:50:06;;;;;;;27.75;15.07;;;;;;;7.80;92.37;101157.13;5024142;28;20132;-52
2021/11/12 18:03:28;;;;;;;24.75;15.32;;;;;;;7.86;91.67;101145.31;5026902;28;20152;-52
2021/11/12 18:06:11;;;;;;;23.92;15.15;;;;;;;7.95;95.01;101145.75;5027288;28;20128;-53
2021/11/12 21:48:19;;;;;;;10.43;5.85;;;;;;;9.25;100.00;101009.78;5031703;28;20079;-50
2021/11/12 21:50:54;;;;;;;13.68;8.68;;;;;;;9.11;100.00;101012.03;5031363;28;20319;-54